Time;durP1;ratioP1;P1;durP2;ratioP2;P2;SDS_P1;SDS_P2;PMS_P1;PMS_P2;Temp;Humidity;BMP_temperature;BMP_pressure;BME280_temperature;BME280_humidity;BME280_pressure;Samples;Min_cycle;Max_cycle;Signal;HPM_P1;HPM_P2
2022/08/21 00:01:42;;;;;;;36.38;4.32;;;;;;;12.54;100.00;94159.78;5030786;28;20037;-68
2022/08/21 00:04:09;;;;;;;17.95;2.60;;;;;;;12.47;100.00;94160.69;5030064;28;20037;-65
2022/08/21 00:06:40;;;;;;;36.00;2.97;;;;;;;12.47;100.00;94160.69;5030613;28;20079;-68
2022/08/21 00:09:08;;;;;;;29.00;2.90;;;;;;;12.46;100.00;94156.38;5027708;28;20056;-67
2022/08/21 00:11:37;;;;;;;127.97;4.80;;;;;;;12.42;100.00;94152.94;5010303;28;20924;-68
2022/08/21 00:14:05;;;;;;;34.00;3.88;;;;;;;12.45;100.00;94145.78;5011135;28;20502;-69
2022/08/21 00:16:32;;;;;;;28.67;2.78;;;;;;;12.59;100.00;94159.28;5010150;28;20046;-68
2022/08/21 00:18:59;;;;;;;33.92;2.60;;;;;;;12.48;100.00;94153.22;5010691;28;20388;-67
2022/08/21 00:21:26;;;;;;;78.63;6.32;;;;;;;12.45;100.00;94146.56;5009967;28;20419;-68
2022/08/21 00:23:52;;;;;;;20.20;5.30;;;;;;;12.45;100.00;94143.81;5010811;28;20525;-67
2022/08/21 00:26:19;;;;;;;14.40;2.80;;;;;;;12.41;100.00;94147.84;5009805;28;20475;-69
2022/08/21 00:28:48;;;;;;;10.63;2.60;;;;;;;12.50;100.00;94143.34;5041844;28;20402;-67
2022/08/21 00:31:16;;;;;;;39.88;2.40;;;;;;;12.42;100.00;94138.38;5009746;28;20044;-69
2022/08/21 00:33:43;;;;;;;15.13;2.25;;;;;;;12.46;100.00;94141.84;5010281;28;20049;-67
2022/08/21 00:36:10;;;;;;;41.90;2.60;;;;;;;12.65;100.00;94137.53;5009356;28;20053;-65
2022/08/21 00:38:37;;;;;;;27.67;2.33;;;;;;;12.63;100.00;94148.22;5010274;28;20042;-67
2022/08/21 00:41:07;;;;;;;54.53;2.90;;;;;;;12.59;100.00;94134.50;5010206;28;20111;-68
2022/08/21 00:43:54;;;;;;;17.92;2.03;;;;;;;12.72;100.00;94137.41;4999333;28;21037;-67
2022/08/21 00:46:21;;;;;;;16.70;2.45;;;;;;;12.70;100.00;94135.09;5009252;28;20046;-67
2022/08/21 00:48:53;;;;;;;45.00;2.63;;;;;;;12.58;100.00;94141.22;5010085;28;20038;-68
2022/08/21 00:51:36;;;;;;;18.98;2.30;;;;;;;12.44;100.00;94139.50;5009461;28;20050;-68
2022/08/21 00:54:06;;;;;;;43.10;2.60;;;;;;;12.55;100.00;94142.81;5009920;28;20050;-67
2022/08/21 00:56:48;;;;;;;44.00;2.50;;;;;;;12.56;100.00;94136.13;5009012;28;21658;-67
2022/08/21 00:59:19;;;;;;;138.65;3.67;;;;;;;12.46;100.00;94139.88;5024209;28;20108;-67
2022/08/21 01:01:46;;;;;;;65.23;8.93;;;;;;;12.44;100.00;94131.25;5029463;28;20060;-68
2022/08/21 01:04:13;;;;;;;68.50;32.10;;;;;;;12.54;100.00;94135.00;5028553;28;20433;-69
2022/08/21 01:06:39;;;;;;;49.22;3.92;;;;;;;12.51;100.00;94136.63;5029672;28;20045;-67
2022/08/21 01:09:06;;;;;;;24.98;3.10;;;;;;;12.53;100.00;94128.72;5059299;28;20541;-67
2022/08/21 01:11:33;;;;;;;42.95;2.70;;;;;;;12.53;100.00;94120.44;5029386;28;20045;-69
2022/08/21 01:14:00;;;;;;;14.33;2.53;;;;;;;12.50;100.00;94129.56;5029994;28;20041;-67
2022/08/21 01:16:28;;;;;;;43.42;2.63;;;;;;;12.45;100.00;94118.25;5028626;28;20107;-67
2022/08/21 01:18:55;;;;;;;48.10;3.08;;;;;;;12.52;100.00;94115.38;5029527;28;20041;-67
2022/08/21 01:21:25;;;;;;;28.25;2.60;;;;;;;12.49;100.00;94111.47;5028789;28;20440;-67
2022/08/21 01:23:55;;;;;;;32.42;2.80;;;;;;;12.49;100.00;94105.22;5029325;28;20043;-68
2022/08/21 01:26:26;;;;;;;19.93;2.27;;;;;;;12.51;100.00;94108.31;5028322;28;20041;-68
2022/08/21 01:29:22;;;;;;;122.43;3.70;;;;;;;12.43;100.00;94106.91;5028708;28;20037;-70
2022/08/21 01:31:49;;;;;;;158.32;4.05;;;;;;;12.19;100.00;94109.69;5022054;28;20299;-67
2022/08/21 01:34:17;;;;;;;43.88;2.40;;;;;;;12.36;100.00;94105.06;5028082;28;20057;-70
2022/08/21 01:36:45;;;;;;;83.20;2.85;;;;;;;-148.33;100.00;65374.31;5028958;28;20037;-69
2022/08/21 01:39:14;;;;;;;15.37;1.93;;;;;;;-148.33;100.00;65374.31;5027020;28;20045;-69
2022/08/21 01:41:41;;;;;;;49.22;2.50;;;;;;;-148.33;100.00;65374.31;5028695;28;20041;-68
2022/08/21 01:44:08;;;;;;;30.90;2.10;;;;;;;-148.33;100.00;65374.31;5028815;28;20107;-69
2022/08/21 01:46:34;;;;;;;42.42;2.38;;;;;;;-148.33;100.00;65374.31;5028040;28;20205;-68
2022/08/21 01:49:02;;;;;;;59.97;2.80;;;;;;;-148.33;100.00;65374.31;5029000;28;20043;-67
2022/08/21 01:51:29;;;;;;;21.90;2.47;;;;;;;-148.33;100.00;65374.31;5028344;28;20054;-67
2022/08/21 01:53:56;;;;;;;34.10;2.60;;;;;;;-148.33;100.00;65374.31;5028913;28;20345;-68
2022/08/21 01:56:24;;;;;;;10.35;2.22;;;;;;;-148.33;100.00;65374.31;5028089;28;20091;-68
2022/08/21 01:58:51;;;;;;;10.30;2.35;;;;;;;-148.33;100.00;65374.31;5028642;28;20409;-69
2022/08/21 02:01:17;;;;;;;36.13;2.70;;;;;;;-148.33;100.00;65374.31;5027393;28;20094;-68
2022/08/21 02:03:44;;;;;;;31.20;2.40;;;;;;;-148.33;100.00;65374.31;5028778;28;20041;-67
2022/08/21 02:06:17;;;;;;;38.47;2.33;;;;;;;-148.33;100.00;65374.31;5028080;28;20045;-67
2022/08/21 02:08:45;;;;;;;15.48;2.10;;;;;;;-148.33;100.00;65374.31;5027752;28;20723;-70
2022/08/21 02:11:11;;;;;;;47.53;2.30;;;;;;;-148.33;100.00;65374.31;5028261;28;20045;-68
2022/08/21 02:13:38;;;;;;;10.63;2.13;;;;;;;-148.33;100.00;65374.31;5029159;28;20048;-67
2022/08/21 02:16:06;;;;;;;67.60;2.57;;;;;;;-148.33;100.00;65374.31;5028390;28;20509;-67
2022/08/21 02:18:34;;;;;;;24.38;1.95;;;;;;;-148.33;100.00;65374.31;5027888;28;20064;-67
2022/08/21 02:21:01;;;;;;;121.97;3.33;;;;;;;-148.33;100.00;65374.31;5028492;28;20044;-68
2022/08/21 02:23:28;;;;;;;59.10;3.08;;;;;;;-148.33;100.00;65374.31;5028122;28;20042;-68
2022/08/21 02:25:57;;;;;;;78.07;3.03;;;;;;;-148.33;100.00;65374.31;5028474;28;20440;-70
2022/08/21 02:28:25;;;;;;;38.23;2.67;;;;;;;-148.33;100.00;65374.31;5027677;28;20049;-69
2022/08/21 02:30:55;;;;;;;100.47;3.80;;;;;;;-148.33;100.00;65374.31;5027140;28;20399;-68
2022/08/21 02:33:22;;;;;;;29.15;2.15;;;;;;;-148.33;100.00;65374.31;5027655;28;20055;-68
2022/08/21 02:35:50;;;;;;;170.65;4.78;;;;;;;-148.33;100.00;65374.31;5028065;28;20103;-68
2022/08/21 02:38:20;;;;;;;72.88;3.38;;;;;;;-148.33;100.00;65374.31;5027479;28;20048;-68
2022/08/21 02:40:50;;;;;;;88.07;3.23;;;;;;;-148.33;100.00;65374.31;5028464;28;20053;-68
2022/08/21 02:43:19;;;;;;;54.67;2.47;;;;;;;-148.33;100.00;65374.31;5027571;28;20355;-68
2022/08/21 02:45:47;;;;;;;44.78;2.70;;;;;;;-148.33;100.00;65374.31;5028520;28;20316;-67
2022/08/21 02:48:28;;;;;;;59.25;2.60;;;;;;;-148.33;100.00;65374.31;5027477;28;20052;-67
2022/08/21 02:51:01;;;;;;;55.95;3.25;;;;;;;-148.33;100.00;65374.31;5028352;28;20039;-69
2022/08/21 02:53:28;;;;;;;43.77;2.77;;;;;;;-148.33;100.00;65374.31;5027565;28;20072;-67
2022/08/21 02:55:57;;;;;;;18.73;1.98;;;;;;;-148.33;100.00;65374.31;5014484;28;20072;-68
2022/08/21 02:58:28;;;;;;;8.75;2.22;;;;;;;-148.33;100.00;65374.31;5027363;28;20083;-67
2022/08/21 03:00:55;;;;;;;15.55;2.00;;;;;;;-148.33;100.00;65374.31;5028219;28;20049;-66
2022/08/21 03:03:22;;;;;;;50.38;2.60;;;;;;;-148.33;100.00;65374.31;5027283;28;20040;-67
2022/08/21 03:05:49;;;;;;;31.80;1.93;;;;;;;-148.33;100.00;65374.31;5027909;28;20037;-68
2022/08/21 03:08:18;;;;;;;6.78;1.63;;;;;;;-148.33;100.00;65374.31;5027196;28;20045;-68
2022/08/21 03:10:47;;;;;;;6.50;1.85;;;;;;;-148.33;100.00;65374.31;5026036;28;20068;-66
2022/08/21 03:13:15;;;;;;;52.83;5.13;;;;;;;-148.33;100.00;65374.31;5029039;28;20038;-69
2022/08/21 03:15:42;;;;;;;85.13;3.97;;;;;;;-148.33;100.00;65374.31;5030452;28;20506;-67
2022/08/21 03:18:10;;;;;;;37.97;2.23;;;;;;;-148.33;100.00;65374.31;5031053;28;20045;-64
2022/08/21 03:20:39;;;;;;;27.10;2.40;;;;;;;-148.33;100.00;65374.31;5031328;28;20382;-69
2022/08/21 03:23:07;;;;;;;62.55;3.25;;;;;;;-148.33;100.00;65374.31;5031588;28;20049;-66
2022/08/21 03:25:42;;;;;;;86.35;4.57;;;;;;;-148.33;100.00;65374.31;5030627;28;20604;-66
2022/08/21 03:28:12;;;;;;;141.88;5.07;;;;;;;-148.33;100.00;65374.31;5030686;28;20053;-64
2022/08/21 03:30:45;;;;;;;125.57;6.40;;;;;;;-148.33;100.00;65374.31;5031480;28;20041;-67
2022/08/21 03:33:12;;;;;;;20.52;3.13;;;;;;;-148.33;100.00;65374.31;5016996;28;20045;-68
2022/08/21 03:35:55;;;;;;;23.88;3.95;;;;;;;-148.33;100.00;65374.31;5031185;28;20409;-68
2022/08/21 03:38:22;;;;;;;12.60;2.97;;;;;;;-148.33;100.00;65374.31;5030305;28;20046;-66
2022/08/21 03:40:52;;;;;;;41.72;3.95;;;;;;;-148.33;100.00;65374.31;5022875;28;20434;-65
2022/08/21 03:43:19;;;;;;;39.63;2.40;;;;;;;-148.33;100.00;65374.31;5028819;28;20052;-66
2022/08/21 03:45:46;;;;;;;21.85;1.83;;;;;;;-148.33;100.00;65374.31;5031042;28;20033;-67
2022/08/21 03:48:14;;;;;;;26.70;2.72;;;;;;;-148.33;100.00;65374.31;5030511;28;20386;-67
2022/08/21 03:50:42;;;;;;;10.00;1.67;;;;;;;-148.33;100.00;65374.31;5030739;28;20248;-68
2022/08/21 03:53:11;;;;;;;16.85;1.92;;;;;;;-148.33;100.00;65374.31;5030493;28;20042;-67
2022/08/21 03:55:48;;;;;;;127.90;4.03;;;;;;;-148.33;100.00;65374.31;5030880;28;20045;-69
2022/08/21 03:58:16;;;;;;;155.13;4.65;;;;;;;-148.33;100.00;65374.31;5030194;28;20049;-67
2022/08/21 04:00:45;;;;;;;82.60;2.80;;;;;;;-148.33;100.00;65374.31;5029349;28;20052;-68
2022/08/21 04:03:12;;;;;;;53.13;3.22;;;;;;;-148.33;100.00;65374.31;5030402;28;20071;-69
2022/08/21 04:05:38;;;;;;;33.40;2.40;;;;;;;-148.33;100.00;65374.31;5030591;28;20033;-68
2022/08/21 04:08:05;;;;;;;21.13;2.10;;;;;;;-148.33;100.00;65374.31;5030667;28;20038;-67
2022/08/21 04:10:34;;;;;;;35.55;2.30;;;;;;;-148.33;100.00;65374.31;5029827;28;20045;-67
2022/08/21 04:13:01;;;;;;;86.82;3.03;;;;;;;-148.33;100.00;65374.31;5030552;28;20041;-67
2022/08/21 04:15:28;;;;;;;68.85;3.17;;;;;;;-148.33;100.00;65374.31;5029984;28;20041;-67
2022/08/21 04:17:55;;;;;;;104.68;7.55;;;;;;;-148.33;100.00;65374.31;5030443;28;20438;-67
2022/08/21 04:20:23;;;;;;;18.83;3.07;;;;;;;-148.33;100.00;65374.31;5029692;28;20053;-70
2022/08/21 04:22:50;;;;;;;32.08;3.50;;;;;;;-148.33;100.00;65374.31;5030631;28;20045;-68
2022/08/21 04:25:19;;;;;;;101.00;5.55;;;;;;;-148.33;100.00;65374.31;5029375;28;20068;-68
2022/08/21 04:27:46;;;;;;;45.75;3.03;;;;;;;-148.33;100.00;65374.31;5029926;28;20033;-69
2022/08/21 04:30:15;;;;;;;30.23;2.13;;;;;;;-148.33;100.00;65374.31;5030034;28;20091;-68
2022/08/21 04:32:44;;;;;;;71.13;2.67;;;;;;;-148.33;100.00;65374.31;5029944;28;20033;-68
2022/08/21 04:35:12;;;;;;;49.92;2.20;;;;;;;-148.33;100.00;65374.31;5029701;28;20064;-69
2022/08/21 04:37:39;;;;;;;13.52;1.85;;;;;;;-148.33;100.00;65374.31;5029746;28;20042;-68
2022/08/21 04:40:09;;;;;;;46.85;2.25;;;;;;;-148.33;100.00;65374.31;5030096;28;20491;-68
2022/08/21 04:42:55;;;;;;;118.45;3.90;;;;;;;-148.33;100.00;65374.31;5026642;28;20147;-68
2022/08/21 04:45:28;;;;;;;25.70;2.73;;;;;;;-148.33;100.00;65374.31;5028449;28;20083;-67
2022/08/21 04:47:58;;;;;;;82.40;3.63;;;;;;;-148.33;100.00;65374.31;5030003;28;20041;-68
2022/08/21 04:50:35;;;;;;;69.20;6.30;;;;;;;-148.33;100.00;65374.31;5029126;28;20404;-68
2022/08/21 04:53:03;;;;;;;48.53;5.35;;;;;;;-148.33;100.00;65374.31;5029540;28;20406;-70
2022/08/21 04:55:30;;;;;;;102.63;6.28;;;;;;;-148.33;100.00;65374.31;5028727;28;20409;-69
2022/08/21 04:57:58;;;;;;;63.63;3.37;;;;;;;-148.33;100.00;65374.31;5029450;28;20391;-69
2022/08/21 05:00:25;;;;;;;53.22;2.70;;;;;;;-148.33;100.00;65374.31;5028791;28;20417;-67
2022/08/21 05:02:56;;;;;;;34.90;2.80;;;;;;;-148.33;100.00;65374.31;5029634;28;20080;-68
2022/08/21 05:05:23;;;;;;;24.13;2.20;;;;;;;-148.33;100.00;65374.31;5029072;28;20457;-67
2022/08/21 05:07:52;;;;;;;51.63;2.33;;;;;;;-148.33;100.00;65374.31;5029764;28;20045;-67
2022/08/21 05:10:19;;;;;;;35.43;2.40;;;;;;;-148.33;100.00;65374.31;5028973;28;20034;-67
2022/08/21 05:12:46;;;;;;;54.60;3.05;;;;;;;-148.33;100.00;65374.31;5029578;28;20048;-68
2022/08/21 05:15:13;;;;;;;19.90;2.33;;;;;;;-148.33;100.00;65374.31;5029049;28;20038;-66
2022/08/21 05:17:40;;;;;;;10.20;1.80;;;;;;;-148.33;100.00;65374.31;5029086;28;20037;-67
2022/08/21 05:20:09;;;;;;;6.68;1.90;;;;;;;-148.33;100.00;65374.31;5029546;28;20050;-67
2022/08/21 05:22:37;;;;;;;9.87;1.97;;;;;;;-148.33;100.00;65374.31;5028382;28;20875;-67
2022/08/21 05:25:06;;;;;;;42.85;3.10;;;;;;;-148.33;100.00;65374.31;5029439;28;20037;-67
2022/08/21 05:27:38;;;;;;;17.85;2.00;;;;;;;-148.33;100.00;65374.31;5027824;28;21624;-68
2022/08/21 05:30:08;;;;;;;25.83;2.08;;;;;;;-148.33;100.00;65374.31;5029446;28;20067;-67
2022/08/21 05:32:36;;;;;;;15.85;2.00;;;;;;;-148.33;100.00;65374.31;5027962;28;20406;-67
2022/08/21 05:35:05;;;;;;;15.97;1.73;;;;;;;-148.33;100.00;65374.31;5029380;28;20514;-67
2022/08/21 05:37:32;;;;;;;15.38;1.60;;;;;;;-148.33;100.00;65374.31;5027257;28;20043;-68
2022/08/21 05:39:59;;;;;;;15.57;1.80;;;;;;;-148.33;100.00;65374.31;5028809;28;20049;-66
2022/08/21 05:42:46;;;;;;;13.20;2.22;;;;;;;-148.33;100.00;65374.31;5028009;28;20594;-66
2022/08/21 05:45:29;;;;;;;15.93;2.88;;;;;;;-148.33;100.00;65374.31;5028232;28;20037;-65
2022/08/21 05:48:15;;;;;;;8.40;2.57;;;;;;;-148.33;100.00;65374.31;5029040;28;20483;-65
2022/08/21 05:50:44;;;;;;;10.27;2.78;;;;;;;-148.33;100.00;65374.31;5027725;28;20914;-69
2022/08/21 05:53:11;;;;;;;6.45;2.60;;;;;;;-148.33;100.00;65374.31;5028627;28;20130;-66
2022/08/21 05:55:39;;;;;;;5.15;2.42;;;;;;;-148.33;100.00;65374.31;5028526;28;20348;-66
2022/08/21 05:58:18;;;;;;;24.10;1.90;;;;;;;-148.33;100.00;65374.31;5028301;28;20053;-65
2022/08/21 06:00:47;;;;;;;20.97;2.03;;;;;;;-148.33;100.00;65374.31;5028621;28;20052;-69
2022/08/21 06:03:24;;;;;;;18.02;1.98;;;;;;;-148.33;100.00;65374.31;5028028;28;20100;-66
2022/08/21 06:05:52;;;;;;;8.63;1.67;;;;;;;-148.33;100.00;65374.31;5028604;28;20045;-66
2022/08/21 06:08:20;;;;;;;7.03;1.70;;;;;;;-148.33;100.00;65374.31;5027919;28;20046;-66
2022/08/21 06:10:48;;;;;;;5.20;1.60;;;;;;;-148.33;100.00;65374.31;5028315;28;20037;-66
2022/08/21 06:13:17;;;;;;;11.10;1.80;;;;;;;-148.33;100.00;65374.31;5026215;28;20041;-66
2022/08/21 06:15:43;;;;;;;4.38;1.70;;;;;;;-148.33;100.00;65374.31;5028252;28;20486;-66
2022/08/21 06:18:11;;;;;;;8.82;1.80;;;;;;;-148.33;100.00;65374.31;5028144;28;20042;-68
2022/08/21 06:20:40;;;;;;;4.53;1.70;;;;;;;-148.33;100.00;65374.31;5028286;28;20482;-66
2022/08/21 06:23:07;;;;;;;3.42;1.80;;;;;;;-148.33;100.00;65374.31;5028431;28;20041;-66
2022/08/21 06:25:35;;;;;;;2.90;1.70;;;;;;;-148.33;100.00;65374.31;5027192;28;20597;-66
2022/08/21 06:28:09;;;;;;;3.00;1.80;;;;;;;-148.33;100.00;65374.31;5027787;28;20067;-66
2022/08/21 06:30:38;;;;;;;3.35;2.05;;;;;;;-148.33;100.00;65374.31;5026141;28;20900;-67
2022/08/21 06:33:06;;;;;;;3.22;1.80;;;;;;;-148.33;100.00;65374.31;5028293;28;20061;-68
2022/08/21 06:35:34;;;;;;;3.60;1.95;;;;;;;-148.33;100.00;65374.31;5027562;28;20075;-66
2022/08/21 06:38:02;;;;;;;4.43;2.30;;;;;;;-148.33;100.00;65374.31;5028210;28;20045;-68
2022/08/21 06:40:30;;;;;;;5.03;2.05;;;;;;;-148.33;100.00;65374.31;5027326;28;20415;-69
2022/08/21 06:43:12;;;;;;;4.43;2.28;;;;;;;-148.33;100.00;65374.31;5028252;28;20053;-68
2022/08/21 06:45:41;;;;;;;3.85;2.20;;;;;;;-148.33;100.00;65374.31;5027177;28;20404;-66
2022/08/21 06:48:08;;;;;;;4.13;2.30;;;;;;;-148.33;100.00;65374.31;5029898;28;20045;-66
2022/08/21 06:50:34;;;;;;;4.27;2.13;;;;;;;-148.33;100.00;65374.31;5030719;28;20202;-66
2022/08/21 06:53:09;;;;;;;3.22;2.33;;;;;;;-148.33;100.00;65374.31;5031983;28;20048;-68
2022/08/21 06:55:37;;;;;;;3.53;2.10;;;;;;;-148.33;100.00;65374.31;5030850;28;21795;-68
2022/08/21 06:58:04;;;;;;;3.05;1.75;;;;;;;-148.33;100.00;65374.31;5031685;28;20387;-67
2022/08/21 07:00:32;;;;;;;2.50;1.60;;;;;;;-148.33;100.00;65374.31;5030963;28;20049;-67
2022/08/21 07:02:59;;;;;;;4.43;1.93;;;;;;;-148.33;100.00;65374.31;5031665;28;20041;-67
2022/08/21 07:05:28;;;;;;;2.60;1.60;;;;;;;-148.33;100.00;65374.31;5031042;28;20068;-69
2022/08/21 07:07:56;;;;;;;2.85;1.40;;;;;;;-148.33;100.00;65374.31;5031560;28;20057;-68
2022/08/21 07:10:25;;;;;;;3.33;2.00;;;;;;;-148.33;100.00;65374.31;5029729;28;20041;-68
2022/08/21 07:12:54;;;;;;;2.58;1.65;;;;;;;-148.33;100.00;65374.31;5030278;28;20490;-67
2022/08/21 07:15:29;;;;;;;2.93;1.60;;;;;;;-148.33;100.00;65374.31;5031595;28;20464;-68
2022/08/21 07:17:58;;;;;;;4.82;1.90;;;;;;;-148.33;100.00;65374.31;5031350;28;20095;-68
2022/08/21 07:20:26;;;;;;;3.17;1.90;;;;;;;-148.33;100.00;65374.31;5030786;28;20075;-68
2022/08/21 07:22:53;;;;;;;2.97;2.00;;;;;;;-148.33;100.00;65374.31;5031063;28;20037;-69
2022/08/21 07:25:20;;;;;;;3.17;2.10;;;;;;;-148.33;100.00;65374.31;5030835;28;20046;-69
2022/08/21 07:27:47;;;;;;;3.67;1.80;;;;;;;-148.33;100.00;65374.31;5031004;28;20415;-68
2022/08/21 07:30:13;;;;;;;4.00;2.00;;;;;;;-148.33;100.00;65374.31;5030940;28;20401;-68
2022/08/21 07:32:40;;;;;;;5.18;2.20;;;;;;;-148.33;100.00;65374.31;5031016;28;20303;-69
2022/08/21 07:35:07;;;;;;;4.03;1.95;;;;;;;-148.33;100.00;65374.31;5031130;28;20037;-73
2022/08/21 07:37:34;;;;;;;3.40;1.90;;;;;;;-148.33;100.00;65374.31;5030317;28;20041;-70
2022/08/21 07:40:01;;;;;;;4.37;2.10;;;;;;;-148.33;100.00;65374.31;5030932;28;20052;-69
2022/08/21 07:42:27;;;;;;;4.57;1.80;;;;;;;-148.33;100.00;65374.31;5030358;28;20059;-69
2022/08/21 07:44:55;;;;;;;4.00;2.10;;;;;;;-148.33;100.00;65374.31;5029398;28;20409;-68
2022/08/21 07:47:22;;;;;;;4.43;2.10;;;;;;;-148.33;100.00;65374.31;5030065;28;20084;-68
2022/08/21 07:50:10;;;;;;;3.92;2.10;;;;;;;-148.33;100.00;65374.31;5030716;28;20053;-72
2022/08/21 07:52:38;;;;;;;5.07;2.10;;;;;;;-148.33;100.00;65374.31;5029718;28;20858;-68
2022/08/21 07:55:05;;;;;;;3.85;1.90;;;;;;;-148.33;100.00;65374.31;5030659;28;20041;-69
2022/08/21 07:57:32;;;;;;;4.80;2.40;;;;;;;-148.33;100.00;65374.31;5029895;28;20049;-70
2022/08/21 07:59:59;;;;;;;5.63;2.30;;;;;;;-148.33;100.00;65374.31;5028305;28;20049;-69
2022/08/21 08:02:28;;;;;;;5.18;2.50;;;;;;;-148.33;100.00;65374.31;5030223;28;20044;-69
2022/08/21 08:05:00;;;;;;;3.83;2.20;;;;;;;-148.33;100.00;65374.31;5029109;28;20044;-72
2022/08/21 08:07:27;;;;;;;3.83;2.00;;;;;;;-148.33;100.00;65374.31;5030123;28;20147;-70
2022/08/21 08:09:54;;;;;;;4.75;2.20;;;;;;;-148.33;100.00;65374.31;5030254;28;20045;-69
2022/08/21 08:12:22;;;;;;;5.05;2.10;;;;;;;-148.33;100.00;65374.31;5028767;28;20081;-70
2022/08/21 08:14:49;;;;;;;4.22;2.30;;;;;;;-148.33;100.00;65374.31;5022817;28;20064;-69
2022/08/21 08:17:15;;;;;;;4.97;2.40;;;;;;;-148.33;100.00;65374.31;5030070;28;20041;-72
2022/08/21 08:19:43;;;;;;;4.75;2.38;;;;;;;-148.33;100.00;65374.31;5029906;28;20046;-68
2022/08/21 08:22:19;;;;;;;6.93;2.60;;;;;;;-148.33;100.00;65374.31;5028511;28;20048;-66
2022/08/21 08:24:48;;;;;;;4.20;2.20;;;;;;;-148.33;100.00;65374.31;5029968;28;20182;-71
2022/08/21 08:27:15;;;;;;;4.90;2.15;;;;;;;-148.33;100.00;65374.31;5029385;28;20449;-69
2022/08/21 08:29:43;;;;;;;4.00;2.10;;;;;;;-148.33;100.00;65374.31;5029725;28;20051;-70
2022/08/21 08:32:10;;;;;;;3.90;2.00;;;;;;;-148.33;100.00;65374.31;5029395;28;20638;-70
2022/08/21 08:34:38;;;;;;;5.57;2.25;;;;;;;-148.33;100.00;65374.31;5029761;28;20041;-71
2022/08/21 08:37:07;;;;;;;4.13;1.95;;;;;;;-148.33;100.00;65374.31;5030050;28;20049;-70
2022/08/21 08:39:34;;;;;;;5.20;2.17;;;;;;;-148.33;100.00;65374.31;5013113;28;20434;-71
2022/08/21 08:42:27;;;;;;;4.33;2.10;;;;;;;-148.33;100.00;65374.31;5030055;28;20042;-69
2022/08/21 08:45:04;;;;;;;3.78;1.85;;;;;;;-148.33;100.00;65374.31;5011807;28;21776;-71
2022/08/21 08:47:34;;;;;;;5.35;2.00;;;;;;;-148.33;100.00;65374.31;5029341;28;20041;-70
2022/08/21 08:50:25;;;;;;;4.15;1.90;;;;;;;-148.33;100.00;65374.31;5029775;28;20041;-69
2022/08/21 08:52:59;;;;;;;4.75;1.60;;;;;;;-148.33;100.00;65374.31;5028552;28;20798;-69
2022/08/21 08:55:34;;;;;;;3.30;1.50;;;;;;;-148.33;100.00;65374.31;5029256;28;20053;-69
2022/08/21 08:58:02;;;;;;;2.42;1.30;;;;;;;-148.33;100.00;65374.31;5029566;28;20041;-70
2022/08/21 09:00:31;;;;;;;3.22;1.30;;;;;;;-148.33;100.00;65374.31;5028661;28;20045;-72
2022/08/21 09:03:00;;;;;;;3.22;1.40;;;;;;;-148.33;100.00;65374.31;5029135;28;20045;-71
2022/08/21 09:05:44;;;;;;;4.45;1.40;;;;;;;-148.33;100.00;65374.31;5028684;28;20480;-70
2022/08/21 09:08:52;;;;;;;3.93;1.40;;;;;;;-148.33;100.00;65374.31;5029267;28;20498;-69
2022/08/21 09:11:48;;;;;;;3.35;1.42;;;;;;;-148.33;100.00;65374.31;5015315;28;20064;-70
2022/08/21 09:14:46;;;;;;;5.05;1.73;;;;;;;-148.33;100.00;65374.31;5024093;28;20124;-69
2022/08/21 09:17:31;;;;;;;4.05;1.50;;;;;;;-148.33;100.00;65374.31;5028958;28;20045;-70
2022/08/21 09:20:11;;;;;;;3.22;1.45;;;;;;;-148.33;100.00;65374.31;5028863;28;20136;-72
2022/08/21 09:22:59;;;;;;;2.87;1.30;;;;;;;-148.33;100.00;65374.31;5028122;28;20931;-69
2022/08/21 09:25:30;;;;;;;2.58;1.20;;;;;;;-148.33;100.00;65374.31;5028468;28;20464;-69
2022/08/21 09:27:57;;;;;;;3.25;1.30;;;;;;;-148.33;100.00;65374.31;5027244;28;20053;-70
2022/08/21 09:30:31;;;;;;;2.42;1.10;;;;;;;-148.33;100.00;65374.31;5028351;28;20166;-69
2022/08/21 09:32:59;;;;;;;2.92;1.20;;;;;;;-148.33;100.00;65374.31;5028721;28;20625;-68
2022/08/21 09:35:26;;;;;;;2.80;1.20;;;;;;;-148.33;100.00;65374.31;5028340;28;20292;-70
2022/08/21 09:37:57;;;;;;;3.30;1.13;;;;;;;-148.33;100.00;65374.31;5028678;28;20038;-70
2022/08/21 09:40:43;;;;;;;2.95;1.20;;;;;;;-148.33;100.00;65374.31;5028224;28;20621;-70
2022/08/21 09:43:18;;;;;;;3.38;1.05;;;;;;;-148.33;100.00;65374.31;5028191;28;20430;-69
2022/08/21 09:45:47;;;;;;;2.47;1.00;;;;;;;-148.33;100.00;65374.31;5028402;28;20417;-72
2022/08/21 09:48:24;;;;;;;2.57;1.10;;;;;;;-148.33;100.00;65374.31;5028318;28;20048;-69
2022/08/21 09:50:53;;;;;;;2.75;1.10;;;;;;;-148.33;100.00;65374.31;5028715;28;20045;-71
2022/08/21 09:53:26;;;;;;;2.60;0.98;;;;;;;-148.33;100.00;65374.31;5028155;28;20049;-69
2022/08/21 09:58:46;;;;;;;2.47;1.10;;;;;;;-148.33;100.00;65374.31;5027220;28;20750;-68
2022/08/21 10:01:19;;;;;;;3.60;1.10;;;;;;;-148.33;100.00;65374.31;5028257;28;20048;-69
2022/08/21 10:03:49;;;;;;;2.88;1.10;;;;;;;-148.33;100.00;65374.31;5028212;28;20432;-68
2022/08/21 10:06:27;;;;;;;2.50;1.20;;;;;;;-148.33;100.00;65374.31;5028065;28;20042;-69
2022/08/21 10:09:14;;;;;;;2.92;1.10;;;;;;;-148.33;100.00;65374.31;5028333;28;20054;-69
2022/08/21 10:12:05;;;;;;;3.20;1.10;;;;;;;-148.33;100.00;65374.31;5026518;28;20572;-69
2022/08/21 10:14:55;;;;;;;2.60;1.20;;;;;;;-148.33;100.00;65374.31;5026213;28;20819;-69
2022/08/21 10:17:57;;;;;;;2.47;1.00;;;;;;;-148.33;100.00;65374.31;5027804;28;20103;-69
2022/08/21 10:20:39;;;;;;;2.25;1.05;;;;;;;-148.33;100.00;65374.31;5000103;28;20421;-72
2022/08/21 10:23:21;;;;;;;2.67;1.00;;;;;;;-148.33;100.00;65374.31;5030193;28;20049;-71
2022/08/21 10:25:56;;;;;;;3.58;1.02;;;;;;;-148.33;100.00;65374.31;5031391;28;20416;-72
2022/08/21 10:29:12;;;;;;;2.63;1.00;;;;;;;-148.33;100.00;65374.31;5030916;28;20993;-73
2022/08/21 10:32:00;;;;;;;2.20;1.00;;;;;;;-148.33;100.00;65374.31;5031465;28;21554;-69
2022/08/21 10:35:02;;;;;;;2.20;0.90;;;;;;;-148.33;100.00;65374.31;5031847;28;20048;-71
2022/08/21 10:37:37;;;;;;;5.28;1.00;;;;;;;-148.33;100.00;65374.31;5031419;28;20053;-72
2022/08/21 10:40:29;;;;;;;3.85;1.00;;;;;;;-148.33;100.00;65374.31;5030878;28;20037;-71
2022/08/21 10:43:20;;;;;;;2.40;1.00;;;;;;;-148.33;100.00;65374.31;5029306;28;20832;-70
2022/08/21 10:46:14;;;;;;;2.47;0.90;;;;;;;-148.33;100.00;65374.31;5027094;28;20209;-70
2022/08/21 10:48:54;;;;;;;2.13;0.80;;;;;;;-148.33;100.00;65374.31;5031317;28;20838;-74
2022/08/21 10:51:35;;;;;;;2.70;0.80;;;;;;;-148.33;100.00;65374.31;5030223;28;20048;-69
2022/08/21 10:54:14;;;;;;;2.15;0.73;;;;;;;-148.33;100.00;65374.31;5031977;28;20095;-69
2022/08/21 10:56:50;;;;;;;2.37;0.70;;;;;;;-148.33;100.00;65374.31;5017217;28;20652;-72
2022/08/21 10:59:33;;;;;;;2.67;0.85;;;;;;;-148.33;100.00;65374.31;5031277;28;20041;-71
2022/08/21 11:02:30;;;;;;;2.20;1.00;;;;;;;-148.33;100.00;65374.31;5019224;28;20079;-71
2022/08/21 11:05:05;;;;;;;1.80;0.70;;;;;;;-148.33;100.00;65374.31;5030835;28;21745;-70
2022/08/21 11:07:36;;;;;;;2.10;0.80;;;;;;;-148.33;100.00;65374.31;5031496;28;20498;-69
2022/08/21 11:10:12;;;;;;;1.90;0.90;;;;;;;-148.33;100.00;65374.31;5031670;28;20045;-70
2022/08/21 11:12:48;;;;;;;2.10;1.02;;;;;;;-148.33;100.00;65374.31;5017628;28;20379;-69
2022/08/21 11:15:25;;;;;;;2.30;1.00;;;;;;;-148.33;100.00;65374.31;5031425;28;20045;-69
2022/08/21 11:18:05;;;;;;;2.05;1.10;;;;;;;-148.33;100.00;65374.31;5018010;28;20083;-71
2022/08/21 11:21:01;;;;;;;3.13;1.00;;;;;;;-148.33;100.00;65374.31;5031066;28;20047;-68
2022/08/21 11:23:38;;;;;;;2.33;1.00;;;;;;;-148.33;100.00;65374.31;5005199;28;20049;-70
2022/08/21 11:26:15;;;;;;;2.85;1.10;;;;;;;-148.33;100.00;65374.31;5031525;28;20056;-68
2022/08/21 11:28:53;;;;;;;2.63;1.10;;;;;;;-148.33;100.00;65374.31;5030349;28;20891;-68
2022/08/21 11:31:22;;;;;;;3.75;1.10;;;;;;;-148.33;100.00;65374.31;5030917;28;20052;-68